Time;durP1;ratioP1;P1;durP2;ratioP2;P2;SDS_P1;SDS_P2;PMS_P1;PMS_P2;Temp;Humidity;BMP_temperature;BMP_pressure;BME280_temperature;BME280_humidity;BME280_pressure;Samples;Min_cycle;Max_cycle;Signal;HPM_P1;HPM_P2
2023/06/23 00:01:34;;;;;;;14.43;12.77;;;;;;;;;;5054685;28;20956;-42
2023/06/23 00:04:00;;;;;;;16.40;14.80;;;;;;;;;;5054931;28;20392;-42
2023/06/23 00:06:26;;;;;;;13.77;12.13;;;;;;;;;;5054761;28;20421;-42
2023/06/23 00:08:52;;;;;;;15.50;13.30;;;;;;;;;;5054654;28;20393;-42
2023/06/23 00:11:19;;;;;;;15.43;13.83;;;;;;;;;;5054544;28;20389;-43
2023/06/23 00:13:45;;;;;;;14.83;12.63;;;;;;;;;;5053908;28;20904;-42
2023/06/23 00:16:11;;;;;;;15.00;13.40;;;;;;;;;;5054691;28;20409;-42
2023/06/23 00:18:39;;;;;;;15.33;12.83;;;;;;;;;;5054732;28;20906;-42
2023/06/23 00:21:06;;;;;;;15.87;14.20;;;;;;;;;;5054357;28;20438;-42
2023/06/23 00:23:32;;;;;;;15.50;12.93;;;;;;;;;;5054455;28;20382;-42
2023/06/23 00:25:58;;;;;;;13.93;12.63;;;;;;;;;;5053618;28;20543;-42
2023/06/23 00:28:24;;;;;;;14.03;12.70;;;;;;;;;;5054337;28;20425;-42
2023/06/23 00:30:51;;;;;;;29.63;14.57;;;;;;;;;;5054229;28;20378;-42
2023/06/23 00:33:17;;;;;;;14.80;12.50;;;;;;;;;;5054756;28;20424;-42
2023/06/23 00:35:43;;;;;;;15.53;13.10;;;;;;;;;;5054373;28;20410;-42
2023/06/23 00:38:09;;;;;;;15.00;13.40;;;;;;;;;;5054183;28;20603;-42
2023/06/23 00:40:36;;;;;;;14.70;13.20;;;;;;;;;;5054064;28;20514;-42
2023/06/23 00:43:02;;;;;;;15.17;13.63;;;;;;;;;;5054139;28;20544;-42
2023/06/23 00:45:28;;;;;;;19.00;15.20;;;;;;;;;;5054129;28;20448;-42
2023/06/23 00:47:54;;;;;;;16.97;15.10;;;;;;;;;;5053847;28;20406;-42
2023/06/23 00:50:21;;;;;;;20.00;14.43;;;;;;;;;;5053745;28;20758;-42
2023/06/23 00:52:51;;;;;;;16.90;14.83;;;;;;;;;;5054556;28;20414;-42
2023/06/23 00:55:20;;;;;;;21.80;15.93;;;;;;;;;;5054366;28;20394;-42
2023/06/23 00:57:47;;;;;;;17.30;14.43;;;;;;;;;;5050066;28;21146;-42
2023/06/23 01:00:17;;;;;;;18.90;15.53;;;;;;;;;;5055671;28;20435;-42
2023/06/23 01:02:43;;;;;;;18.93;14.80;;;;;;;;;;5053036;28;20584;-42
2023/06/23 01:05:09;;;;;;;16.80;15.00;;;;;;;;;;5053321;28;20721;-42
2023/06/23 01:07:52;;;;;;;20.50;17.67;;;;;;;;;;5052823;28;20994;-44
2023/06/23 01:10:23;;;;;;;17.67;14.97;;;;;;;;;;5053449;28;20391;-42
2023/06/23 01:13:02;;;;;;;18.80;16.23;;;;;;;;;;5053704;28;20391;-42
2023/06/23 01:15:32;;;;;;;18.33;15.80;;;;;;;;;;5053446;28;20393;-44
2023/06/23 01:18:04;;;;;;;19.03;15.20;;;;;;;;;;5058480;28;20779;-42
2023/06/23 01:20:33;;;;;;;20.00;14.80;;;;;;;;;;5053281;28;20481;-42
2023/06/23 01:23:09;;;;;;;18.30;14.90;;;;;;;;;;5053431;28;20430;-42
2023/06/23 01:25:35;;;;;;;19.83;14.53;;;;;;;;;;5053315;28;20407;-43
2023/06/23 01:28:38;;;;;;;17.10;14.57;;;;;;;;;;5052262;28;20417;-42
2023/06/23 01:31:05;;;;;;;16.53;14.40;;;;;;;;;;4948511;29;20423;-42
2023/06/23 01:33:37;;;;;;;17.37;15.57;;;;;;;;;;5034669;28;20940;-44
2023/06/23 01:36:11;;;;;;;19.93;16.83;;;;;;;;;;5053299;28;20398;-42
2023/06/23 01:38:40;;;;;;;17.37;15.57;;;;;;;;;;5051894;28;20424;-42
2023/06/23 01:41:19;;;;;;;15.50;14.00;;;;;;;;;;5052880;28;20411;-42
2023/06/23 01:43:48;;;;;;;21.13;15.43;;;;;;;;;;5048936;28;20385;-42
2023/06/23 01:46:16;;;;;;;23.30;15.63;;;;;;;;;;5052855;28;20411;-42
2023/06/23 01:48:45;;;;;;;20.57;16.50;;;;;;;;;;5052976;28;20420;-42
2023/06/23 01:51:11;;;;;;;23.67;16.30;;;;;;;;;;5052973;28;20421;-42
2023/06/23 01:53:38;;;;;;;19.27;15.93;;;;;;;;;;5052824;28;20439;-42
2023/06/23 01:56:05;;;;;;;25.50;17.00;;;;;;;;;;5052711;28;20435;-42
2023/06/23 01:58:32;;;;;;;24.87;17.63;;;;;;;;;;5050855;28;20435;-45
2023/06/23 02:00:58;;;;;;;20.23;16.93;;;;;;;;;;5051869;28;20402;-42
2023/06/23 02:03:27;;;;;;;54.27;19.20;;;;;;;;;;5052593;28;20474;-42
2023/06/23 02:05:54;;;;;;;18.67;16.50;;;;;;;;;;5052629;28;20425;-42
2023/06/23 02:08:20;;;;;;;20.10;16.77;;;;;;;;;;5052658;28;20397;-42
2023/06/23 02:10:46;;;;;;;23.43;17.63;;;;;;;;;;5052275;28;20538;-42
2023/06/23 02:13:14;;;;;;;23.10;18.90;;;;;;;;;;5052480;28;20416;-46
2023/06/23 02:15:40;;;;;;;21.90;17.83;;;;;;;;;;5052343;28;20402;-43
2023/06/23 02:18:08;;;;;;;28.10;18.23;;;;;;;;;;5052339;28;20414;-42
2023/06/23 02:20:36;;;;;;;24.00;19.63;;;;;;;;;;5052128;28;20394;-42
2023/06/23 02:23:02;;;;;;;38.67;20.60;;;;;;;;;;5052280;28;20435;-42
2023/06/23 02:25:29;;;;;;;28.60;21.00;;;;;;;;;;5052044;28;20891;-42
2023/06/23 02:27:56;;;;;;;26.07;20.60;;;;;;;;;;5051424;28;20389;-42
2023/06/23 02:30:22;;;;;;;24.37;21.77;;;;;;;;;;5051492;28;20414;-42
2023/06/23 02:32:48;;;;;;;31.90;22.80;;;;;;;;;;5052109;28;20473;-42
2023/06/23 02:35:14;;;;;;;31.10;23.53;;;;;;;;;;5051934;28;20746;-42
2023/06/23 02:37:42;;;;;;;31.93;23.17;;;;;;;;;;5052341;28;20770;-42
2023/06/23 02:40:10;;;;;;;30.67;22.10;;;;;;;;;;5051761;28;20495;-42
2023/06/23 02:42:37;;;;;;;47.33;24.87;;;;;;;;;;5051900;28;20467;-43
2023/06/23 02:45:05;;;;;;;29.90;21.47;;;;;;;;;;5051873;28;20426;-43
2023/06/23 02:47:35;;;;;;;27.47;22.27;;;;;;;;;;5042321;28;20445;-42
2023/06/23 02:50:03;;;;;;;30.33;21.37;;;;;;;;;;5051649;28;20440;-43
2023/06/23 02:52:34;;;;;;;29.20;21.33;;;;;;;;;;5051770;28;20386;-43
2023/06/23 02:55:02;;;;;;;27.50;21.57;;;;;;;;;;5051835;28;20393;-42
2023/06/23 02:57:30;;;;;;;27.63;20.83;;;;;;;;;;5051601;28;20423;-42
2023/06/23 02:59:58;;;;;;;24.73;19.77;;;;;;;;;;5044882;28;20836;-42
2023/06/23 03:02:25;;;;;;;26.50;19.87;;;;;;;;;;5051745;28;20524;-43
2023/06/23 03:04:51;;;;;;;26.73;19.20;;;;;;;;;;5051655;28;20392;-42
2023/06/23 03:07:17;;;;;;;26.83;19.80;;;;;;;;;;5051975;28;20932;-44
2023/06/23 03:09:44;;;;;;;27.40;18.97;;;;;;;;;;5051230;28;20443;-44
2023/06/23 03:12:10;;;;;;;23.80;17.03;;;;;;;;;;5050529;28;20912;-44
2023/06/23 03:14:37;;;;;;;26.90;17.13;;;;;;;;;;5051481;28;20419;-44
2023/06/23 03:17:07;;;;;;;31.10;17.50;;;;;;;;;;5051670;28;20458;-44
2023/06/23 03:19:42;;;;;;;20.37;16.93;;;;;;;;;;5051191;28;20457;-44
2023/06/23 03:22:13;;;;;;;24.97;17.40;;;;;;;;;;5051435;28;20481;-45
2023/06/23 03:24:42;;;;;;;23.53;17.23;;;;;;;;;;5047620;28;20435;-45
2023/06/23 03:27:09;;;;;;;21.53;15.97;;;;;;;;;;5051326;28;20885;-44
2023/06/23 03:29:38;;;;;;;34.83;16.57;;;;;;;;;;5050127;28;20432;-44
2023/06/23 03:32:05;;;;;;;22.73;16.70;;;;;;;;;;5051504;28;20441;-45
2023/06/23 03:34:41;;;;;;;26.33;18.23;;;;;;;;;;5051319;28;20403;-44
2023/06/23 03:37:08;;;;;;;26.43;19.90;;;;;;;;;;5044876;28;20483;-45
2023/06/23 03:39:36;;;;;;;24.87;18.90;;;;;;;;;;5051181;28;20416;-44
2023/06/23 03:42:03;;;;;;;28.40;21.83;;;;;;;;;;5051020;28;20524;-44
2023/06/23 03:44:49;;;;;;;28.17;20.40;;;;;;;;;;5051236;28;20416;-45
2023/06/23 03:47:20;;;;;;;36.13;22.43;;;;;;;;;;5051239;28;20989;-45
2023/06/23 03:49:47;;;;;;;35.87;23.63;;;;;;;;;;5050943;28;20396;-44
2023/06/23 03:52:15;;;;;;;30.27;23.00;;;;;;;;;;5051282;28;20893;-45
2023/06/23 03:54:41;;;;;;;36.83;23.97;;;;;;;;;;5057911;28;20431;-45
2023/06/23 03:57:09;;;;;;;30.00;23.30;;;;;;;;;;5051011;28;20418;-45
2023/06/23 03:59:37;;;;;;;30.93;25.60;;;;;;;;;;5050096;28;20429;-44
2023/06/23 04:02:04;;;;;;;39.10;25.03;;;;;;;;;;5050823;28;20467;-45
2023/06/23 04:04:31;;;;;;;41.60;25.57;;;;;;;;;;5051194;28;20416;-44
2023/06/23 04:06:59;;;;;;;34.83;25.37;;;;;;;;;;5050777;28;20413;-45
2023/06/23 04:09:25;;;;;;;52.00;26.80;;;;;;;;;;5050798;28;20393;-45
2023/06/23 04:11:52;;;;;;;39.00;28.17;;;;;;;;;;5050784;28;20382;-44
2023/06/23 04:14:19;;;;;;;42.60;28.70;;;;;;;;;;5051025;28;20386;-45
2023/06/23 04:16:46;;;;;;;43.27;28.80;;;;;;;;;;5050755;28;20452;-44
2023/06/23 04:19:12;;;;;;;36.73;28.27;;;;;;;;;;5051092;28;20420;-46
2023/06/23 04:21:39;;;;;;;34.73;25.57;;;;;;;;;;5043694;28;20516;-45
2023/06/23 04:24:06;;;;;;;38.07;26.33;;;;;;;;;;5053216;28;20387;-45
2023/06/23 04:26:36;;;;;;;39.93;27.30;;;;;;;;;;5054452;28;20781;-45
2023/06/23 04:29:06;;;;;;;29.23;22.87;;;;;;;;;;5054463;28;20551;-45
2023/06/23 04:31:33;;;;;;;39.30;26.47;;;;;;;;;;5052521;28;20415;-45
2023/06/23 04:33:59;;;;;;;34.60;25.20;;;;;;;;;;5054511;28;20393;-45
2023/06/23 04:36:27;;;;;;;31.90;24.43;;;;;;;;;;5054223;28;20422;-45
2023/06/23 04:38:58;;;;;;;32.70;24.70;;;;;;;;;;5054270;28;20425;-44
2023/06/23 04:41:26;;;;;;;40.40;24.63;;;;;;;;;;5054040;28;20495;-45
2023/06/23 04:43:54;;;;;;;43.60;25.27;;;;;;;;;;5054066;28;20383;-45
2023/06/23 04:46:23;;;;;;;36.70;25.53;;;;;;;;;;5054134;28;20832;-45
2023/06/23 04:48:54;;;;;;;33.47;25.67;;;;;;;;;;5054097;28;20466;-45
2023/06/23 04:51:21;;;;;;;32.97;24.20;;;;;;;;;;5053891;28;20411;-45
2023/06/23 04:53:50;;;;;;;46.37;25.70;;;;;;;;;;5054462;28;20407;-44
2023/06/23 04:56:18;;;;;;;34.40;24.53;;;;;;;;;;5053930;28;20515;-44
2023/06/23 04:58:47;;;;;;;37.53;25.10;;;;;;;;;;5053922;28;20407;-44
2023/06/23 05:01:14;;;;;;;30.60;24.00;;;;;;;;;;5052558;28;20451;-45
2023/06/23 05:03:40;;;;;;;38.47;26.73;;;;;;;;;;5053785;28;20416;-46
2023/06/23 05:06:07;;;;;;;35.20;25.77;;;;;;;;;;5053662;28;20428;-44
2023/06/23 05:08:33;;;;;;;35.53;25.53;;;;;;;;;;5053661;28;20423;-45
2023/06/23 05:11:04;;;;;;;41.43;27.83;;;;;;;;;;5053325;28;20881;-45
2023/06/23 05:13:30;;;;;;;39.63;28.10;;;;;;;;;;5053641;28;20409;-45
2023/06/23 05:15:57;;;;;;;37.20;26.93;;;;;;;;;;5053881;28;20876;-45
2023/06/23 05:18:24;;;;;;;37.93;28.60;;;;;;;;;;5053484;28;20479;-44
2023/06/23 05:20:52;;;;;;;39.07;27.50;;;;;;;;;;5053226;28;20467;-45
2023/06/23 05:23:18;;;;;;;42.00;28.40;;;;;;;;;;5053293;28;20497;-45
2023/06/23 05:25:45;;;;;;;42.03;29.20;;;;;;;;;;5053311;28;20494;-44
2023/06/23 05:28:12;;;;;;;39.73;28.37;;;;;;;;;;5053362;28;20793;-45
2023/06/23 05:30:38;;;;;;;38.20;28.80;;;;;;;;;;5055067;28;20424;-46
2023/06/23 05:33:07;;;;;;;40.97;31.17;;;;;;;;;;5052212;28;20471;-46
2023/06/23 05:35:34;;;;;;;41.80;32.20;;;;;;;;;;5051349;28;20387;-44
2023/06/23 05:38:01;;;;;;;43.83;29.57;;;;;;;;;;5052519;28;20895;-45
2023/06/23 05:40:27;;;;;;;47.03;30.27;;;;;;;;;;5052617;28;20770;-45
2023/06/23 05:42:53;;;;;;;40.13;28.90;;;;;;;;;;5052437;28;20468;-44
2023/06/23 05:45:19;;;;;;;48.10;29.40;;;;;;;;;;5052494;28;20410;-45
2023/06/23 05:47:45;;;;;;;46.43;29.57;;;;;;;;;;5052596;28;20381;-45
2023/06/23 05:50:18;;;;;;;40.97;29.23;;;;;;;;;;5052338;28;20391;-45
2023/06/23 05:52:47;;;;;;;36.87;30.00;;;;;;;;;;5045816;28;20929;-44
2023/06/23 05:55:13;;;;;;;38.93;30.03;;;;;;;;;;5052519;28;20425;-45
2023/06/23 05:57:40;;;;;;;48.33;28.17;;;;;;;;;;5052033;28;20480;-44
2023/06/23 06:00:09;;;;;;;44.50;31.47;;;;;;;;;;5052171;28;20396;-44
2023/06/23 06:02:37;;;;;;;47.53;29.47;;;;;;;;;;5050984;28;20447;-45
2023/06/23 06:05:07;;;;;;;38.30;29.40;;;;;;;;;;5052169;28;20436;-44
2023/06/23 06:07:33;;;;;;;44.17;32.20;;;;;;;;;;5051619;28;20445;-45
2023/06/23 06:10:00;;;;;;;41.83;30.90;;;;;;;;;;5052375;28;20791;-45
2023/06/23 06:12:27;;;;;;;43.60;31.43;;;;;;;;;;5052507;28;20388;-45
2023/06/23 06:14:54;;;;;;;40.27;30.90;;;;;;;;;;5052559;28;20857;-45
2023/06/23 06:17:21;;;;;;;39.60;28.23;;;;;;;;;;5052464;28;20414;-45
2023/06/23 06:19:48;;;;;;;40.63;30.07;;;;;;;;;;5052081;28;20519;-44
2023/06/23 06:22:14;;;;;;;41.10;29.67;;;;;;;;;;5052341;28;20469;-45
2023/06/23 06:24:41;;;;;;;40.67;26.67;;;;;;;;;;5052373;28;20444;-44
2023/06/23 06:27:08;;;;;;;34.73;27.77;;;;;;;;;;5052316;28;20429;-46
2023/06/23 06:29:35;;;;;;;40.40;25.87;;;;;;;;;;5052218;28;20409;-45
2023/06/23 06:32:03;;;;;;;39.70;26.20;;;;;;;;;;5052130;28;20385;-45
2023/06/23 06:34:31;;;;;;;28.40;23.50;;;;;;;;;;5051534;28;20434;-46
2023/06/23 06:36:57;;;;;;;34.63;24.03;;;;;;;;;;5049477;28;20461;-46
2023/06/23 06:39:23;;;;;;;35.50;24.87;;;;;;;;;;5051896;28;20414;-45
2023/06/23 06:41:50;;;;;;;28.43;23.07;;;;;;;;;;5051724;28;20437;-44
2023/06/23 06:44:16;;;;;;;33.03;23.73;;;;;;;;;;5052035;28;20406;-44
2023/06/23 06:46:43;;;;;;;28.00;21.97;;;;;;;;;;5051954;28;20399;-45
2023/06/23 06:49:10;;;;;;;25.30;21.13;;;;;;;;;;5051874;28;20413;-45
2023/06/23 06:51:37;;;;;;;33.33;22.20;;;;;;;;;;5051607;28;20952;-45
2023/06/23 06:54:03;;;;;;;31.00;22.13;;;;;;;;;;5051826;28;20450;-45
2023/06/23 06:56:29;;;;;;;28.63;21.40;;;;;;;;;;5051609;28;20440;-45
2023/06/23 06:58:55;;;;;;;31.17;20.93;;;;;;;;;;5051786;28;20410;-45
2023/06/23 07:01:21;;;;;;;25.53;21.40;;;;;;;;;;5051298;28;20380;-44
2023/06/23 07:03:47;;;;;;;33.63;20.87;;;;;;;;;;5050910;28;20424;-44
2023/06/23 07:06:13;;;;;;;27.47;20.63;;;;;;;;;;5051376;28;20917;-45
2023/06/23 07:08:40;;;;;;;30.10;21.30;;;;;;;;;;5049034;28;20426;-44
2023/06/23 07:11:06;;;;;;;28.60;21.60;;;;;;;;;;5051223;28;20776;-45
2023/06/23 07:13:32;;;;;;;25.60;21.50;;;;;;;;;;5051679;28;20489;-46
2023/06/23 07:15:58;;;;;;;27.10;21.70;;;;;;;;;;5051356;28;20425;-45
2023/06/23 07:18:24;;;;;;;26.47;21.10;;;;;;;;;;5051864;28;20385;-45
2023/06/23 07:20:50;;;;;;;28.53;22.70;;;;;;;;;;5051226;28;20489;-45
2023/06/23 07:23:16;;;;;;;26.33;21.47;;;;;;;;;;5051316;28;20469;-45
2023/06/23 07:25:42;;;;;;;32.00;19.73;;;;;;;;;;5051339;28;20497;-46
2023/06/23 07:28:08;;;;;;;24.37;19.40;;;;;;;;;;5059483;28;20962;-45
2023/06/23 07:30:34;;;;;;;23.27;18.00;;;;;;;;;;5051033;28;20770;-46
2023/06/23 07:33:00;;;;;;;21.00;17.43;;;;;;;;;;5050866;28;20430;-45
2023/06/23 07:35:26;;;;;;;23.13;18.47;;;;;;;;;;5051323;28;20897;-46
2023/06/23 07:37:52;;;;;;;25.20;19.07;;;;;;;;;;5051296;28;20419;-45
2023/06/23 07:40:18;;;;;;;27.30;18.67;;;;;;;;;;5051070;28;20426;-44
2023/06/23 07:42:44;;;;;;;19.77;16.43;;;;;;;;;;5051424;28;20501;-46
2023/06/23 07:45:10;;;;;;;20.80;16.07;;;;;;;;;;5051136;28;20420;-45
2023/06/23 07:47:36;;;;;;;19.20;16.07;;;;;;;;;;5050972;28;20433;-45
2023/06/23 07:50:02;;;;;;;25.97;16.03;;;;;;;;;;5050995;28;20402;-44
2023/06/23 07:52:29;;;;;;;21.73;16.43;;;;;;;;;;5051159;28;20967;-45
2023/06/23 07:54:55;;;;;;;23.83;15.77;;;;;;;;;;5051390;28;20417;-45
2023/06/23 07:57:21;;;;;;;18.87;14.57;;;;;;;;;;5051002;28;20492;-44
2023/06/23 07:59:48;;;;;;;18.20;12.97;;;;;;;;;;5054189;28;20822;-45
2023/06/23 08:02:14;;;;;;;16.20;13.07;;;;;;;;;;5054868;28;20503;-45
2023/06/23 08:04:39;;;;;;;15.87;12.47;;;;;;;;;;5054506;28;20830;-45
2023/06/23 08:07:06;;;;;;;15.17;11.57;;;;;;;;;;5054898;28;20447;-45
2023/06/23 08:09:31;;;;;;;14.00;11.77;;;;;;;;;;5055206;28;20502;-44
2023/06/23 08:11:57;;;;;;;12.53;11.23;;;;;;;;;;5054782;28;20457;-46
2023/06/23 08:14:23;;;;;;;21.10;12.43;;;;;;;;;;5054708;28;20413;-46
2023/06/23 08:16:49;;;;;;;12.90;11.50;;;;;;;;;;5054739;28;20426;-46
2023/06/23 08:19:21;;;;;;;13.50;10.93;;;;;;;;;;5051580;28;20586;-45
2023/06/23 08:21:47;;;;;;;14.83;9.90;;;;;;;;;;5054525;28;20484;-45
2023/06/23 08:24:13;;;;;;;13.07;9.50;;;;;;;;;;5054518;28;20914;-46
2023/06/23 08:26:39;;;;;;;9.17;8.30;;;;;;;;;;5041405;28;20521;-46
2023/06/23 08:29:05;;;;;;;8.70;7.70;;;;;;;;;;5043215;28;20474;-45
2023/06/23 08:31:31;;;;;;;8.23;7.37;;;;;;;;;;5054364;28;20417;-46
2023/06/23 08:33:57;;;;;;;7.23;6.53;;;;;;;;;;5053559;28;20433;-45
2023/06/23 08:36:23;;;;;;;9.40;6.90;;;;;;;;;;5054726;28;20460;-46
2023/06/23 08:38:49;;;;;;;7.77;6.33;;;;;;;;;;5053545;28;20404;-46
2023/06/23 08:41:15;;;;;;;6.13;5.53;;;;;;;;;;5056961;28;20877;-43
2023/06/23 08:43:45;;;;;;;6.83;5.40;;;;;;;;;;5054046;28;20907;-43
2023/06/23 08:46:13;;;;;;;5.30;4.80;;;;;;;;;;5054026;28;20433;-44
2023/06/23 08:48:40;;;;;;;6.73;5.80;;;;;;;;;;5054249;28;20911;-43
2023/06/23 08:51:06;;;;;;;4.43;4.13;;;;;;;;;;5053792;28;20419;-43
2023/06/23 08:53:32;;;;;;;5.87;5.10;;;;;;;;;;5053506;28;20446;-44
2023/06/23 08:55:58;;;;;;;7.47;4.47;;;;;;;;;;5053606;28;20785;-43
2023/06/23 08:58:25;;;;;;;4.23;3.93;;;;;;;;;;5053742;28;20500;-43
2023/06/23 09:00:51;;;;;;;4.87;4.37;;;;;;;;;;5058483;28;20443;-48
2023/06/23 09:03:24;;;;;;;4.30;4.00;;;;;;;;;;5055478;28;20961;-46
2023/06/23 09:05:50;;;;;;;5.83;3.97;;;;;;;;;;5053592;28;20444;-44
2023/06/23 09:08:16;;;;;;;4.67;3.77;;;;;;;;;;5053589;28;20402;-43
2023/06/23 09:10:42;;;;;;;4.63;3.23;;;;;;;;;;5053165;28;20492;-43
2023/06/23 09:13:08;;;;;;;3.70;3.40;;;;;;;;;;5053612;28;20552;-43
2023/06/23 09:15:38;;;;;;;4.30;3.90;;;;;;;;;;5053308;28;21042;-43
2023/06/23 09:18:05;;;;;;;3.60;3.07;;;;;;;;;;5053615;28;20178;-43
2023/06/23 09:20:31;;;;;;;3.70;3.13;;;;;;;;;;5053227;28;20567;-43
2023/06/23 09:23:00;;;;;;;4.83;3.80;;;;;;;;;;5053165;28;20461;-43
2023/06/23 09:25:38;;;;;;;4.00;3.57;;;;;;;;;;5053973;28;20504;-44
2023/06/23 09:28:04;;;;;;;7.17;3.90;;;;;;;;;;5053353;28;20416;-44
2023/06/23 09:30:36;;;;;;;4.30;3.93;;;;;;;;;;5053056;28;20409;-44
2023/06/23 09:33:05;;;;;;;3.60;3.30;;;;;;;;;;5052966;28;20471;-44
2023/06/23 09:35:31;;;;;;;5.50;3.40;;;;;;;;;;5053052;28;20504;-43
2023/06/23 09:37:57;;;;;;;5.30;4.03;;;;;;;;;;5053075;28;20451;-46
2023/06/23 09:40:27;;;;;;;4.47;3.60;;;;;;;;;;5052760;28;20472;-44
2023/06/23 09:42:59;;;;;;;6.30;4.30;;;;;;;;;;5053074;28;20650;-44
2023/06/23 09:45:25;;;;;;;4.83;3.60;;;;;;;;;;5052917;28;20421;-43
2023/06/23 09:47:51;;;;;;;6.57;4.17;;;;;;;;;;5052938;28;20418;-44
2023/06/23 09:50:20;;;;;;;4.73;4.03;;;;;;;;;;5052538;28;20972;-43
2023/06/23 09:52:46;;;;;;;3.93;3.63;;;;;;;;;;5051771;28;20431;-44
2023/06/23 09:55:12;;;;;;;3.43;3.13;;;;;;;;;;5052840;28;20422;-44
2023/06/23 09:57:38;;;;;;;6.33;3.70;;;;;;;;;;5052644;28;20433;-44
2023/06/23 10:00:08;;;;;;;4.63;3.70;;;;;;;;;;5052542;28;20475;-44
2023/06/23 10:02:34;;;;;;;4.13;3.73;;;;;;;;;;5052397;28;20918;-45
2023/06/23 10:05:05;;;;;;;3.47;3.20;;;;;;;;;;5052592;28;20499;-45
2023/06/23 10:07:31;;;;;;;4.37;4.00;;;;;;;;;;5052403;28;20449;-44
2023/06/23 10:09:59;;;;;;;3.80;3.50;;;;;;;;;;5052492;28;20470;-44
2023/06/23 10:12:26;;;;;;;4.03;3.63;;;;;;;;;;5054275;28;20418;-44
2023/06/23 10:14:53;;;;;;;5.87;3.90;;;;;;;;;;5052336;28;20420;-44
2023/06/23 10:17:19;;;;;;;5.10;4.70;;;;;;;;;;5052114;28;20633;-44
2023/06/23 10:19:45;;;;;;;4.47;4.07;;;;;;;;;;5052280;28;20401;-44
2023/06/23 10:22:14;;;;;;;4.70;4.30;;;;;;;;;;5050695;28;20465;-45
2023/06/23 10:24:40;;;;;;;5.60;4.43;;;;;;;;;;5047788;28;20913;-44
2023/06/23 10:27:08;;;;;;;11.87;4.27;;;;;;;;;;5052252;28;20498;-44
2023/06/23 10:29:35;;;;;;;5.20;4.70;;;;;;;;;;5051910;28;20406;-44
2023/06/23 10:32:01;;;;;;;4.90;4.50;;;;;;;;;;5051882;28;20509;-45
2023/06/23 10:34:28;;;;;;;4.60;4.20;;;;;;;;;;5052011;28;20417;-44
2023/06/23 10:36:57;;;;;;;5.33;4.27;;;;;;;;;;5050842;28;20779;-44
2023/06/23 10:39:25;;;;;;;4.77;4.37;;;;;;;;;;5052247;28;20829;-45
2023/06/23 10:41:52;;;;;;;6.03;4.47;;;;;;;;;;5051952;28;20818;-47
2023/06/23 10:44:18;;;;;;;8.23;4.63;;;;;;;;;;5051679;28;20424;-44
2023/06/23 10:46:45;;;;;;;7.00;4.83;;;;;;;;;;5051754;28;20444;-44
2023/06/23 10:49:12;;;;;;;5.20;4.80;;;;;;;;;;5051787;28;20420;-45
2023/06/23 10:51:38;;;;;;;5.37;4.57;;;;;;;;;;5050136;28;20419;-47
2023/06/23 10:54:05;;;;;;;11.63;4.70;;;;;;;;;;5049839;28;20433;-45
2023/06/23 10:56:34;;;;;;;5.10;3.80;;;;;;;;;;5051817;28;20417;-45
2023/06/23 10:59:00;;;;;;;10.30;4.47;;;;;;;;;;5050892;28;20474;-45
2023/06/23 11:01:26;;;;;;;4.73;4.33;;;;;;;;;;5051348;28;20909;-44
2023/06/23 11:03:53;;;;;;;4.27;3.87;;;;;;;;;;5051609;28;20470;-46
2023/06/23 11:06:34;;;;;;;4.17;3.77;;;;;;;;;;5051669;28;20488;-45
2023/06/23 11:09:01;;;;;;;4.90;4.50;;;;;;;;;;5051696;28;20416;-45
2023/06/23 11:11:31;;;;;;;5.43;5.03;;;;;;;;;;5051220;28;20420;-47
2023/06/23 11:13:57;;;;;;;5.30;4.80;;;;;;;;;;5051621;28;20488;-44
2023/06/23 11:16:41;;;;;;;5.80;4.47;;;;;;;;;;5051464;28;20472;-44
2023/06/23 11:19:07;;;;;;;7.00;4.20;;;;;;;;;;5051539;28;20460;-45
2023/06/23 11:21:35;;;;;;;5.00;3.83;;;;;;;;;;5051303;28;20809;-45
2023/06/23 11:24:13;;;;;;;5.00;4.60;;;;;;;;;;5050449;28;20512;-45
2023/06/23 11:26:51;;;;;;;4.13;3.80;;;;;;;;;;5051428;28;20432;-45
2023/06/23 11:29:22;;;;;;;6.43;4.57;;;;;;;;;;5051412;28;20447;-45
2023/06/23 11:32:20;;;;;;;4.60;4.20;;;;;;;;;;5051225;28;20441;-45
2023/06/23 11:34:53;;;;;;;8.13;5.00;;;;;;;;;;5021763;28;20428;-45
2023/06/23 11:37:20;;;;;;;4.50;4.07;;;;;;;;;;5055502;28;20448;-47
2023/06/23 11:39:47;;;;;;;4.47;4.10;;;;;;;;;;5055270;28;20409;-45
2023/06/23 11:42:13;;;;;;;5.33;4.50;;;;;;;;;;5055325;28;20560;-45
2023/06/23 11:44:39;;;;;;;4.00;3.70;;;;;;;;;;5055314;28;20844;-45
2023/06/23 11:47:05;;;;;;;3.93;3.60;;;;;;;;;;5059568;28;20456;-45
2023/06/23 11:49:31;;;;;;;6.30;4.43;;;;;;;;;;5055857;28;20420;-48
2023/06/23 11:52:04;;;;;;;4.77;3.43;;;;;;;;;;5054590;28;20417;-45
2023/06/23 11:54:35;;;;;;;3.80;3.50;;;;;;;;;;5053785;28;20835;-48
2023/06/23 11:57:02;;;;;;;4.50;3.70;;;;;;;;;;5054927;28;20957;-46
2023/06/23 11:59:33;;;;;;;4.10;3.70;;;;;;;;;;5054490;28;20463;-45
2023/06/23 12:02:03;;;;;;;4.43;3.60;;;;;;;;;;5054797;28;20544;-46
2023/06/23 12:04:29;;;;;;;5.17;3.53;;;;;;;;;;5054907;28;20821;-45
2023/06/23 12:06:55;;;;;;;5.50;3.50;;;;;;;;;;5054622;28;20532;-45
2023/06/23 12:09:21;;;;;;;3.77;3.57;;;;;;;;;;5054819;28;20481;-45
2023/06/23 12:11:47;;;;;;;4.10;3.63;;;;;;;;;;5054366;28;20397;-45
2023/06/23 12:14:13;;;;;;;6.87;4.00;;;;;;;;;;5054763;28;20879;-45
2023/06/23 12:16:39;;;;;;;4.00;3.43;;;;;;;;;;5054746;28;20441;-45
2023/06/23 12:19:06;;;;;;;5.93;3.50;;;;;;;;;;5054656;28;20424;-45
2023/06/23 12:21:33;;;;;;;4.10;3.70;;;;;;;;;;5054899;28;20841;-50
2023/06/23 12:23:59;;;;;;;3.53;3.23;;;;;;;;;;5049201;28;20438;-50
2023/06/23 12:26:25;;;;;;;3.87;3.57;;;;;;;;;;5054476;28;20423;-48
2023/06/23 12:28:51;;;;;;;3.23;2.93;;;;;;;;;;5054681;28;20843;-49
2023/06/23 12:31:27;;;;;;;4.03;3.83;;;;;;;;;;5054185;28;20409;-50
2023/06/23 12:33:54;;;;;;;4.27;3.30;;;;;;;;;;5054348;28;20770;-50
2023/06/23 12:36:20;;;;;;;3.60;3.30;;;;;;;;;;5054440;28;20435;-48
2023/06/23 12:38:52;;;;;;;4.83;4.17;;;;;;;;;;5054341;28;20420;-49
2023/06/23 12:41:19;;;;;;;3.53;3.23;;;;;;;;;;5054055;28;20409;-50
2023/06/23 12:43:46;;;;;;;4.77;3.33;;;;;;;;;;5053498;28;20960;-50
2023/06/23 12:46:12;;;;;;;3.90;3.03;;;;;;;;;;5054230;28;20794;-50
2023/06/23 12:48:39;;;;;;;3.13;2.63;;;;;;;;;;5054151;28;20400;-50
2023/06/23 12:51:08;;;;;;;5.83;3.60;;;;;;;;;;5054149;28;20428;-50
2023/06/23 12:53:34;;;;;;;3.70;3.30;;;;;;;;;;5054118;28;20488;-49
2023/06/23 12:56:00;;;;;;;4.70;3.57;;;;;;;;;;5053061;28;20449;-50
2023/06/23 12:58:27;;;;;;;3.50;3.30;;;;;;;;;;5053870;28;20401;-49
2023/06/23 13:00:53;;;;;;;9.63;4.10;;;;;;;;;;5053798;28;20422;-50
2023/06/23 13:03:19;;;;;;;4.00;3.70;;;;;;;;;;5053754;28;20457;-50
2023/06/23 13:05:45;;;;;;;3.77;3.47;;;;;;;;;;5053587;28;20498;-48
2023/06/23 13:08:13;;;;;;;4.33;3.93;;;;;;;;;;5053850;28;20394;-48
2023/06/23 13:10:40;;;;;;;3.40;3.20;;;;;;;;;;5053670;28;20966;-50
2023/06/23 13:13:06;;;;;;;3.97;3.67;;;;;;;;;;5053789;28;20417;-50
2023/06/23 13:15:35;;;;;;;6.80;3.30;;;;;;;;;;5050845;28;20463;-50
2023/06/23 13:18:01;;;;;;;4.23;3.63;;;;;;;;;;5048408;28;20420;-49
2023/06/23 13:20:27;;;;;;;7.33;3.23;;;;;;;;;;5053280;28;20405;-50
2023/06/23 13:22:53;;;;;;;3.00;2.83;;;;;;;;;;5053407;28;21028;-48
2023/06/23 13:25:19;;;;;;;3.10;2.90;;;;;;;;;;5052298;28;20476;-48
2023/06/23 13:27:45;;;;;;;4.53;3.13;;;;;;;;;;5053294;28;20433;-49
2023/06/23 13:30:11;;;;;;;3.50;3.10;;;;;;;;;;5053254;28;20405;-50
2023/06/23 13:32:40;;;;;;;3.47;3.00;;;;;;;;;;5053315;28;20902;-49
2023/06/23 13:35:06;;;;;;;3.20;2.90;;;;;;;;;;5053291;28;20421;-50
2023/06/23 13:37:38;;;;;;;3.70;3.40;;;;;;;;;;5053040;28;20441;-50
2023/06/23 13:40:12;;;;;;;3.37;3.13;;;;;;;;;;5051699;28;20413;-50
2023/06/23 13:42:39;;;;;;;4.47;3.50;;;;;;;;;;5053176;28;20468;-49
2023/06/23 13:45:05;;;;;;;4.07;3.70;;;;;;;;;;5053045;28;20435;-50
2023/06/23 13:47:31;;;;;;;4.47;3.90;;;;;;;;;;5052928;28;20953;-48
2023/06/23 13:49:57;;;;;;;3.63;3.33;;;;;;;;;;5052687;28;20473;-50
2023/06/23 13:52:24;;;;;;;5.33;3.90;;;;;;;;;;5052907;28;20905;-48
2023/06/23 13:54:50;;;;;;;7.60;3.70;;;;;;;;;;5052034;28;20425;-49
2023/06/23 13:57:16;;;;;;;6.50;3.53;;;;;;;;;;5052152;28;20502;-47
2023/06/23 13:59:42;;;;;;;3.97;3.60;;;;;;;;;;5052603;28;20410;-49
2023/06/23 14:02:08;;;;;;;6.33;3.67;;;;;;;;;;5052739;28;20457;-49
2023/06/23 14:04:34;;;;;;;4.03;3.63;;;;;;;;;;5052616;28;20428;-45
2023/06/23 14:07:00;;;;;;;3.77;3.40;;;;;;;;;;5052477;28;20814;-46
2023/06/23 14:09:26;;;;;;;4.30;3.90;;;;;;;;;;5052463;28;20409;-45
2023/06/23 14:11:52;;;;;;;3.93;3.73;;;;;;;;;;5050941;28;20559;-46
2023/06/23 14:14:18;;;;;;;4.17;3.73;;;;;;;;;;5051447;28;20491;-46
2023/06/23 14:16:44;;;;;;;4.13;3.73;;;;;;;;;;5052443;28;20436;-47
2023/06/23 14:19:10;;;;;;;7.40;4.30;;;;;;;;;;5053321;28;20500;-47
2023/06/23 14:21:36;;;;;;;4.83;3.53;;;;;;;;;;5052120;28;20829;-47
2023/06/23 14:24:02;;;;;;;4.17;3.87;;;;;;;;;;5052166;28;20417;-45
2023/06/23 14:26:28;;;;;;;4.30;4.00;;;;;;;;;;5051625;28;20455;-45
2023/06/23 14:28:54;;;;;;;4.30;4.00;;;;;;;;;;5052165;28;20833;-45
2023/06/23 14:31:20;;;;;;;5.80;4.30;;;;;;;;;;5052132;28;20413;-45